Saint Gertrude, North Dakota
Current Conditions -  °F | °C
As of 7:35 PM on Tuesday 21 Oct 2014 (Local Time) from KY19 Reporting Station
Clear Clear  
Wind Chill: 68°   Ceiling: Unl
Heat Index: 68°   Visibility: 10mi
Dew Point: 45°   Wind: 17mph
Humidity: 43%   Direction: 170°S
Pressure: 29.68"   Gusts: 22mph
Location:  46.3317°N, 101.236°W
Report Text: KY19 220135Z AUTO 17015G19KT 10SM CLR 20/07 A2968 RMK AO2
Loading
Personal Weather Stations






























Interactive Weather Map
Tropical Storm Tracking
New forecast layout! Learn more

10-Day Weather Forecast

Advertisements
Track Severe Weather on mobile